sensor_id;sensor_type;location;lat;lon;timestamp;pressure;altitude;pressure_sealevel;temperature;humidity
15272;BME280;7737;51.578;7.268;2023-02-17T11:24:04;63419.03;;;-143.17;100.00
15272;BME280;7737;51.578;7.268;2023-02-17T11:27:30;63419.03;;;-143.17;100.00
15272;BME280;7737;51.578;7.268;2023-02-17T11:31:03;63419.03;;;-143.17;100.00
15272;BME280;7737;51.578;7.268;2023-02-17T11:34:32;63419.03;;;-143.17;100.00
15272;BME280;7737;51.578;7.268;2023-02-17T11:38:00;63419.03;;;-143.17;100.00
15272;BME280;7737;51.578;7.268;2023-02-17T11:41:37;63419.03;;;-143.17;100.00
15272;BME280;7737;51.578;7.268;2023-02-17T11:45:09;63419.03;;;-143.17;100.00
15272;BME280;7737;51.578;7.268;2023-02-17T11:48:52;63419.03;;;-143.17;100.00
15272;BME280;7737;51.578;7.268;2023-02-17T11:52:35;63419.03;;;-143.17;100.00
15272;BME280;7737;51.578;7.268;2023-02-17T11:56:16;63419.03;;;-143.17;100.00
15272;BME280;7737;51.578;7.268;2023-02-17T11:59:51;63419.03;;;-143.17;100.00
15272;BME280;7737;51.578;7.268;2023-02-17T12:03:31;63419.03;;;-143.17;100.00
15272;BME280;7737;51.578;7.268;2023-02-17T12:07:19;63419.03;;;-143.17;100.00
15272;BME280;7737;51.578;7.268;2023-02-17T12:10:58;63419.03;;;-143.17;100.00
15272;BME280;7737;51.578;7.268;2023-02-17T12:14:39;63419.03;;;-143.17;100.00
15272;BME280;7737;51.578;7.268;2023-02-17T12:18:15;63419.03;;;-143.17;100.00
15272;BME280;7737;51.578;7.268;2023-02-17T12:21:52;63419.03;;;-143.17;100.00
15272;BME280;7737;51.578;7.268;2023-02-17T12:25:29;63419.03;;;-143.17;100.00
15272;BME280;7737;51.578;7.268;2023-02-17T12:29:03;63419.03;;;-143.17;100.00
15272;BME280;7737;51.578;7.268;2023-02-17T12:32:47;63419.03;;;-143.17;100.00
15272;BME280;7737;51.578;7.268;2023-02-17T12:36:21;63419.03;;;-143.17;100.00
15272;BME280;7737;51.578;7.268;2023-02-17T12:39:52;63419.03;;;-143.17;100.00
15272;BME280;7737;51.578;7.268;2023-02-17T12:43:22;63419.03;;;-143.17;100.00
15272;BME280;7737;51.578;7.268;2023-02-17T12:46:50;63419.03;;;-143.17;100.00
15272;BME280;7737;51.578;7.268;2023-02-17T12:50:20;63419.03;;;-143.17;100.00
15272;BME280;7737;51.578;7.268;2023-02-17T12:53:50;63419.03;;;-143.17;100.00
15272;BME280;7737;51.578;7.268;2023-02-17T12:57:36;63419.03;;;-143.17;100.00
15272;BME280;7737;51.578;7.268;2023-02-17T13:01:12;63419.03;;;-143.17;100.00
15272;BME280;7737;51.578;7.268;2023-02-17T13:04:40;63419.03;;;-143.17;100.00
15272;BME280;7737;51.578;7.268;2023-02-17T13:08:20;63419.03;;;-143.17;100.00
15272;BME280;7737;51.578;7.268;2023-02-17T13:12:13;63419.03;;;-143.17;100.00
15272;BME280;7737;51.578;7.268;2023-02-17T13:15:41;63419.03;;;-143.17;100.00
15272;BME280;7737;51.578;7.268;2023-02-17T13:19:11;63419.03;;;-143.17;100.00
15272;BME280;7737;51.578;7.268;2023-02-17T13:22:48;63419.03;;;-143.17;100.00
15272;BME280;7737;51.578;7.268;2023-02-17T13:26:26;63419.03;;;-143.17;100.00
15272;BME280;7737;51.578;7.268;2023-02-17T13:29:57;63419.03;;;-143.17;100.00
15272;BME280;7737;51.578;7.268;2023-02-17T13:33:28;63419.03;;;-143.17;100.00
15272;BME280;7737;51.578;7.268;2023-02-17T13:36:53;63419.03;;;-143.17;100.00
15272;BME280;7737;51.578;7.268;2023-02-17T13:40:36;63419.03;;;-143.17;100.00
15272;BME280;7737;51.578;7.268;2023-02-17T13:44:17;63419.03;;;-143.17;100.00
15272;BME280;7737;51.578;7.268;2023-02-17T13:47:45;63419.03;;;-143.17;100.00
15272;BME280;7737;51.578;7.268;2023-02-17T13:51:27;63419.03;;;-143.17;100.00
15272;BME280;7737;51.578;7.268;2023-02-17T13:54:54;63419.03;;;-143.17;100.00
15272;BME280;7737;51.578;7.268;2023-02-17T13:58:21;63419.03;;;-143.17;100.00
15272;BME280;7737;51.578;7.268;2023-02-17T14:01:47;63419.03;;;-143.17;100.00
15272;BME280;7737;51.578;7.268;2023-02-17T14:05:19;63419.03;;;-143.17;100.00
15272;BME280;7737;51.578;7.268;2023-02-17T14:08:46;63419.03;;;-143.17;100.00
15272;BME280;7737;51.578;7.268;2023-02-17T14:12:16;63419.03;;;-143.17;100.00
15272;BME280;7737;51.578;7.268;2023-02-17T14:15:50;63419.03;;;-143.17;100.00
15272;BME280;7737;51.578;7.268;2023-02-17T14:19:24;63419.03;;;-143.17;100.00
15272;BME280;7737;51.578;7.268;2023-02-17T14:23:03;63419.03;;;-143.17;100.00
15272;BME280;7737;51.578;7.268;2023-02-17T14:26:30;63419.03;;;-143.17;100.00
15272;BME280;7737;51.578;7.268;2023-02-17T14:29:57;63419.03;;;-143.17;100.00
15272;BME280;7737;51.578;7.268;2023-02-17T14:33:26;63419.03;;;-143.17;100.00
15272;BME280;7737;51.578;7.268;2023-02-17T14:36:52;63419.03;;;-143.17;100.00
15272;BME280;7737;51.578;7.268;2023-02-17T14:40:20;63419.03;;;-143.17;100.00
15272;BME280;7737;51.578;7.268;2023-02-17T14:43:46;63419.03;;;-143.17;100.00
15272;BME280;7737;51.578;7.268;2023-02-17T14:47:11;63419.03;;;-143.17;100.00
15272;BME280;7737;51.578;7.268;2023-02-17T14:50:36;63419.03;;;-143.17;100.00
15272;BME280;7737;51.578;7.268;2023-02-17T14:54:10;63419.03;;;-143.17;100.00
15272;BME280;7737;51.578;7.268;2023-02-17T14:57:38;63419.03;;;-143.17;100.00
15272;BME280;7737;51.578;7.268;2023-02-17T15:01:08;63419.03;;;-143.17;100.00
15272;BME280;7737;51.578;7.268;2023-02-17T15:04:34;63419.03;;;-143.17;100.00
15272;BME280;7737;51.578;7.268;2023-02-17T15:07:59;63419.03;;;-143.17;100.00
15272;BME280;7737;51.578;7.268;2023-02-17T15:11:26;63419.03;;;-143.17;100.00
15272;BME280;7737;51.578;7.268;2023-02-17T15:14:54;63419.03;;;-143.17;100.00
15272;BME280;7737;51.578;7.268;2023-02-17T15:18:19;63419.03;;;-143.17;100.00
15272;BME280;7737;51.578;7.268;2023-02-17T15:21:46;63419.03;;;-143.17;100.00
15272;BME280;7737;51.578;7.268;2023-02-17T15:25:12;63419.03;;;-143.17;100.00
15272;BME280;7737;51.578;7.268;2023-02-17T15:28:38;63419.03;;;-143.17;100.00
15272;BME280;7737;51.578;7.268;2023-02-17T15:32:10;63419.03;;;-143.17;100.00
15272;BME280;7737;51.578;7.268;2023-02-17T15:35:36;63419.03;;;-143.17;100.00
15272;BME280;7737;51.578;7.268;2023-02-17T15:39:02;63419.03;;;-143.17;100.00
15272;BME280;7737;51.578;7.268;2023-02-17T15:42:27;63419.03;;;-143.17;100.00
15272;BME280;7737;51.578;7.268;2023-02-17T15:45:52;63419.03;;;-143.17;100.00
15272;BME280;7737;51.578;7.268;2023-02-17T15:49:21;63419.03;;;-143.17;100.00
15272;BME280;7737;51.578;7.268;2023-02-17T15:52:46;63419.03;;;-143.17;100.00
15272;BME280;7737;51.578;7.268;2023-02-17T15:56:12;63419.03;;;-143.17;100.00
15272;BME280;7737;51.578;7.268;2023-02-17T15:59:38;63419.03;;;-143.17;100.00
15272;BME280;7737;51.578;7.268;2023-02-17T16:03:13;63419.03;;;-143.17;100.00
15272;BME280;7737;51.578;7.268;2023-02-17T16:06:40;63419.03;;;-143.17;100.00
15272;BME280;7737;51.578;7.268;2023-02-17T16:10:06;63419.03;;;-143.17;100.00
15272;BME280;7737;51.578;7.268;2023-02-17T16:13:31;63419.03;;;-143.17;100.00
15272;BME280;7737;51.578;7.268;2023-02-17T16:16:57;63419.03;;;-143.17;100.00
15272;BME280;7737;51.578;7.268;2023-02-17T16:20:22;63419.03;;;-143.17;100.00
15272;BME280;7737;51.578;7.268;2023-02-17T16:23:49;63419.03;;;-143.17;100.00
15272;BME280;7737;51.578;7.268;2023-02-17T16:27:20;63419.03;;;-143.17;100.00
15272;BME280;7737;51.578;7.268;2023-02-17T16:30:46;63419.03;;;-143.17;100.00
15272;BME280;7737;51.578;7.268;2023-02-17T16:34:13;63419.03;;;-143.17;100.00
15272;BME280;7737;51.578;7.268;2023-02-17T16:37:39;63419.03;;;-143.17;100.00
15272;BME280;7737;51.578;7.268;2023-02-17T16:41:11;63419.03;;;-143.17;100.00
15272;BME280;7737;51.578;7.268;2023-02-17T16:44:36;63419.03;;;-143.17;100.00
15272;BME280;7737;51.578;7.268;2023-02-17T16:48:03;63419.03;;;-143.17;100.00
15272;BME280;7737;51.578;7.268;2023-02-17T16:51:32;63419.03;;;-143.17;100.00
15272;BME280;7737;51.578;7.268;2023-02-17T16:54:08;101228.56;;;13.15;100.00
15272;BME280;7737;51.578;7.268;2023-02-17T16:57:37;63419.03;;;-143.17;100.00
15272;BME280;7737;51.578;7.268;2023-02-17T17:01:02;63419.03;;;-143.17;100.00
15272;BME280;7737;51.578;7.268;2023-02-17T17:04:27;63419.03;;;-143.17;100.00
15272;BME280;7737;51.578;7.268;2023-02-17T17:07:53;63419.03;;;-143.17;100.00
15272;BME280;7737;51.578;7.268;2023-02-17T17:11:21;63419.03;;;-143.17;100.00
15272;BME280;7737;51.578;7.268;2023-02-17T17:14:48;63419.03;;;-143.17;100.00
15272;BME280;7737;51.578;7.268;2023-02-17T17:18:16;63419.03;;;-143.17;100.00
15272;BME280;7737;51.578;7.268;2023-02-17T17:21:42;63419.03;;;-143.17;100.00
15272;BME280;7737;51.578;7.268;2023-02-17T17:25:07;63419.03;;;-143.17;100.00
15272;BME280;7737;51.578;7.268;2023-02-17T17:28:32;63419.03;;;-143.17;100.00
15272;BME280;7737;51.578;7.268;2023-02-17T17:31:59;63419.03;;;-143.17;100.00
15272;BME280;7737;51.578;7.268;2023-02-17T17:35:24;63419.03;;;-143.17;100.00
15272;BME280;7737;51.578;7.268;2023-02-17T17:38:50;63419.03;;;-143.17;100.00
15272;BME280;7737;51.578;7.268;2023-02-17T17:42:15;63419.03;;;-143.17;100.00
15272;BME280;7737;51.578;7.268;2023-02-17T17:45:40;63419.03;;;-143.17;100.00
15272;BME280;7737;51.578;7.268;2023-02-17T17:49:10;63419.03;;;-143.17;100.00
15272;BME280;7737;51.578;7.268;2023-02-17T17:52:36;63419.03;;;-143.17;100.00
15272;BME280;7737;51.578;7.268;2023-02-17T17:56:01;63419.03;;;-143.17;100.00
15272;BME280;7737;51.578;7.268;2023-02-17T17:59:26;63419.03;;;-143.17;100.00
15272;BME280;7737;51.578;7.268;2023-02-17T18:02:51;63419.03;;;-143.17;100.00
15272;BME280;7737;51.578;7.268;2023-02-17T18:06:19;63419.03;;;-143.17;100.00
15272;BME280;7737;51.578;7.268;2023-02-17T18:09:46;63419.03;;;-143.17;100.00
15272;BME280;7737;51.578;7.268;2023-02-17T18:12:20;101228.56;;;13.15;100.00
15272;BME280;7737;51.578;7.268;2023-02-17T18:14:50;101519.91;;;12.89;100.00
15272;BME280;7737;51.578;7.268;2023-02-17T18:17:18;101521.91;;;12.83;100.00
15272;BME280;7737;51.578;7.268;2023-02-17T18:19:47;101512.25;;;12.81;100.00
15272;BME280;7737;51.578;7.268;2023-02-17T18:22:15;101514.81;;;12.82;100.00
15272;BME280;7737;51.578;7.268;2023-02-17T18:24:41;101528.81;;;12.88;100.00
15272;BME280;7737;51.578;7.268;2023-02-17T18:27:09;101548.59;;;12.83;100.00
15272;BME280;7737;51.578;7.268;2023-02-17T18:29:35;101534.88;;;12.72;100.00
15272;BME280;7737;51.578;7.268;2023-02-17T18:32:02;101549.44;;;12.65;100.00
15272;BME280;7737;51.578;7.268;2023-02-17T18:34:28;101555.69;;;12.64;100.00
15272;BME280;7737;51.578;7.268;2023-02-17T18:36:55;101563.91;;;12.60;100.00
15272;BME280;7737;51.578;7.268;2023-02-17T18:39:23;101572.03;;;12.57;100.00
15272;BME280;7737;51.578;7.268;2023-02-17T18:41:49;101574.22;;;12.67;100.00
15272;BME280;7737;51.578;7.268;2023-02-17T18:44:16;101569.41;;;12.55;100.00
15272;BME280;7737;51.578;7.268;2023-02-17T18:46:43;101564.44;;;12.48;100.00
15272;BME280;7737;51.578;7.268;2023-02-17T18:49:09;101559.84;;;12.51;100.00
15272;BME280;7737;51.578;7.268;2023-02-17T18:51:36;101568.84;;;12.49;100.00
15272;BME280;7737;51.578;7.268;2023-02-17T18:54:03;101556.38;;;12.49;100.00
15272;BME280;7737;51.578;7.268;2023-02-17T18:56:36;101560.88;;;12.47;100.00
15272;BME280;7737;51.578;7.268;2023-02-17T18:59:03;101569.97;;;12.43;100.00
15272;BME280;7737;51.578;7.268;2023-02-17T19:01:32;101570.22;;;12.37;100.00
15272;BME280;7737;51.578;7.268;2023-02-17T19:04:00;101578.22;;;12.37;100.00
15272;BME280;7737;51.578;7.268;2023-02-17T19:06:28;101580.03;;;12.37;100.00
15272;BME280;7737;51.578;7.268;2023-02-17T19:08:55;101588.09;;;12.35;100.00
15272;BME280;7737;51.578;7.268;2023-02-17T19:11:22;101591.81;;;12.31;100.00
15272;BME280;7737;51.578;7.268;2023-02-17T19:13:51;101589.97;;;12.33;100.00
15272;BME280;7737;51.578;7.268;2023-02-17T19:16:20;101591.69;;;12.34;100.00
15272;BME280;7737;51.578;7.268;2023-02-17T19:18:47;101587.22;;;12.35;100.00
15272;BME280;7737;51.578;7.268;2023-02-17T19:21:14;101593.75;;;12.28;100.00
15272;BME280;7737;51.578;7.268;2023-02-17T19:23:41;101583.16;;;12.26;100.00
15272;BME280;7737;51.578;7.268;2023-02-17T19:26:10;101588.09;;;12.35;100.00
15272;BME280;7737;51.578;7.268;2023-02-17T19:28:37;101593.56;;;12.32;100.00
15272;BME280;7737;51.578;7.268;2023-02-17T19:31:07;101592.91;;;12.27;100.00
15272;BME280;7737;51.578;7.268;2023-02-17T19:33:34;101593.22;;;12.19;100.00
15272;BME280;7737;51.578;7.268;2023-02-17T19:36:05;101589.31;;;12.28;100.00
15272;BME280;7737;51.578;7.268;2023-02-17T19:38:31;101601.13;;;12.21;100.00
15272;BME280;7737;51.578;7.268;2023-02-17T19:41:00;101592.22;;;12.22;100.00
15272;BME280;7737;51.578;7.268;2023-02-17T19:43:27;101595.69;;;12.24;100.00
15272;BME280;7737;51.578;7.268;2023-02-17T19:45:53;101592.09;;;12.25;100.00
15272;BME280;7737;51.578;7.268;2023-02-17T19:48:21;101595.63;;;12.26;100.00
15272;BME280;7737;51.578;7.268;2023-02-17T19:50:48;101592.03;;;12.27;100.00
15272;BME280;7737;51.578;7.268;2023-02-17T19:53:14;101583.22;;;12.25;100.00
15272;BME280;7737;51.578;7.268;2023-02-17T19:55:41;101597.59;;;12.20;100.00
15272;BME280;7737;51.578;7.268;2023-02-17T19:58:07;101601.25;;;12.18;100.00
15272;BME280;7737;51.578;7.268;2023-02-17T20:00:34;101601.97;;;12.23;100.00
15272;BME280;7737;51.578;7.268;2023-02-17T20:03:00;101604.75;;;12.20;100.00
15272;BME280;7737;51.578;7.268;2023-02-17T20:05:28;101611.81;;;12.21;100.00
15272;BME280;7737;51.578;7.268;2023-02-17T20:07:55;101599.56;;;12.17;100.00
15272;BME280;7737;51.578;7.268;2023-02-17T20:10:23;101593.44;;;12.15;100.00
15272;BME280;7737;51.578;7.268;2023-02-17T20:12:49;101604.13;;;12.13;100.00
15272;BME280;7737;51.578;7.268;2023-02-17T20:15:16;101610.41;;;12.12;100.00
15272;BME280;7737;51.578;7.268;2023-02-17T20:17:42;101609.34;;;12.16;100.00
15272;BME280;7737;51.578;7.268;2023-02-17T20:20:09;101607.00;;;12.09;100.00
15272;BME280;7737;51.578;7.268;2023-02-17T20:22:37;101616.78;;;12.08;100.00
15272;BME280;7737;51.578;7.268;2023-02-17T20:25:05;101626.69;;;12.05;100.00
15272;BME280;7737;51.578;7.268;2023-02-17T20:27:31;101636.63;;;12.01;100.00
15272;BME280;7737;51.578;7.268;2023-02-17T20:29:58;101646.34;;;12.02;100.00
15272;BME280;7737;51.578;7.268;2023-02-17T20:32:24;101647.47;;;11.97;100.00
15272;BME280;7737;51.578;7.268;2023-02-17T20:34:51;101642.13;;;11.97;100.00
15272;BME280;7737;51.578;7.268;2023-02-17T20:37:17;101652.06;;;11.93;100.00
15272;BME280;7737;51.578;7.268;2023-02-17T20:39:45;101650.56;;;11.86;100.00
15272;BME280;7737;51.578;7.268;2023-02-17T20:42:13;101657.94;;;11.80;100.00
15272;BME280;7737;51.578;7.268;2023-02-17T20:44:39;101670.56;;;11.75;100.00
15272;BME280;7737;51.578;7.268;2023-02-17T20:47:07;101676.94;;;11.71;100.00
15272;BME280;7737;51.578;7.268;2023-02-17T20:49:33;101678.94;;;11.64;100.00
15272;BME280;7737;51.578;7.268;2023-02-17T20:52:00;101671.75;;;11.66;100.00
15272;BME280;7737;51.578;7.268;2023-02-17T20:54:26;101681.53;;;11.66;100.00
15272;BME280;7737;51.578;7.268;2023-02-17T20:56:54;101674.50;;;11.65;100.00
15272;BME280;7737;51.578;7.268;2023-02-17T20:59:23;101678.06;;;11.63;100.00
15272;BME280;7737;51.578;7.268;2023-02-17T21:01:49;101685.31;;;11.60;100.00
15272;BME280;7737;51.578;7.268;2023-02-17T21:04:16;101693.38;;;11.58;100.00
15272;BME280;7737;51.578;7.268;2023-02-17T21:06:42;101690.63;;;11.60;100.00
15272;BME280;7737;51.578;7.268;2023-02-17T21:09:14;101683.88;;;11.51;100.00
15272;BME280;7737;51.578;7.268;2023-02-17T21:11:41;101684.88;;;11.49;100.00
15272;BME280;7737;51.578;7.268;2023-02-17T21:14:09;101676.59;;;11.56;100.00
15272;BME280;7737;51.578;7.268;2023-02-17T21:16:35;101684.97;;;11.46;100.00
15272;BME280;7737;51.578;7.268;2023-02-17T21:19:02;101686.06;;;11.40;100.00
15272;BME280;7737;51.578;7.268;2023-02-17T21:21:29;101675.31;;;11.43;100.00
15272;BME280;7737;51.578;7.268;2023-02-17T21:23:57;101682.59;;;11.38;100.00
15272;BME280;7737;51.578;7.268;2023-02-17T21:26:23;101693.25;;;11.38;100.00
15272;BME280;7737;51.578;7.268;2023-02-17T21:28:50;101682.72;;;11.35;100.00
15272;BME280;7737;51.578;7.268;2023-02-17T21:31:19;101693.25;;;11.38;100.00
15272;BME280;7737;51.578;7.268;2023-02-17T21:33:46;101688.84;;;11.37;100.00
15272;BME280;7737;51.578;7.268;2023-02-17T21:36:14;101689.03;;;11.33;100.00
15272;BME280;7737;51.578;7.268;2023-02-17T21:38:42;101693.47;;;11.32;100.00
15272;BME280;7737;51.578;7.268;2023-02-17T21:41:10;101695.38;;;11.29;100.00
15272;BME280;7737;51.578;7.268;2023-02-17T21:43:38;101701.56;;;11.29;100.00
15272;BME280;7737;51.578;7.268;2023-02-17T21:46:24;101699.78;;;11.30;100.00
15272;BME280;7737;51.578;7.268;2023-02-17T21:48:51;101701.69;;;11.26;100.00
15272;BME280;7737;51.578;7.268;2023-02-17T21:51:17;101688.47;;;11.23;100.00
15272;BME280;7737;51.578;7.268;2023-02-17T21:53:44;101702.72;;;11.22;100.00
15272;BME280;7737;51.578;7.268;2023-02-17T21:56:11;101704.44;;;11.23;100.00
15272;BME280;7737;51.578;7.268;2023-02-17T21:58:37;101709.88;;;11.20;100.00
15272;BME280;7737;51.578;7.268;2023-02-17T22:01:04;101706.41;;;11.18;100.00
15272;BME280;7737;51.578;7.268;2023-02-17T22:03:33;101719.94;;;11.12;100.00
15272;BME280;7737;51.578;7.268;2023-02-17T22:05:59;101725.38;;;11.09;100.00
15272;BME280;7737;51.578;7.268;2023-02-17T22:08:26;101720.44;;;10.98;100.00
15272;BME280;7737;51.578;7.268;2023-02-17T22:10:52;101714.34;;;10.95;100.00
15272;BME280;7737;51.578;7.268;2023-02-17T22:13:18;101712.50;;;10.97;100.00
15272;BME280;7737;51.578;7.268;2023-02-17T22:15:45;101713.53;;;10.93;100.00
15272;BME280;7737;51.578;7.268;2023-02-17T22:18:11;101710.97;;;10.90;100.00
15272;BME280;7737;51.578;7.268;2023-02-17T22:20:42;101718.91;;;10.91;100.00
15272;BME280;7737;51.578;7.268;2023-02-17T22:23:09;101717.91;;;10.94;100.00
15272;BME280;7737;51.578;7.268;2023-02-17T22:25:39;101718.88;;;10.93;100.00
15272;BME280;7737;51.578;7.268;2023-02-17T22:28:06;101707.34;;;10.92;100.00
15272;BME280;7737;51.578;7.268;2023-02-17T22:30:32;101716.19;;;10.93;100.00
15272;BME280;7737;51.578;7.268;2023-02-17T22:32:59;101721.63;;;10.90;100.00
15272;BME280;7737;51.578;7.268;2023-02-17T22:35:26;101710.22;;;10.86;100.00
15272;BME280;7737;51.578;7.268;2023-02-17T22:37:54;101722.59;;;10.87;100.00
15272;BME280;7737;51.578;7.268;2023-02-17T22:40:21;101713.91;;;10.82;100.00
15272;BME280;7737;51.578;7.268;2023-02-17T22:42:48;101713.03;;;10.82;100.00
15272;BME280;7737;51.578;7.268;2023-02-17T22:45:14;101716.69;;;10.79;100.00
15272;BME280;7737;51.578;7.268;2023-02-17T22:47:41;101713.03;;;10.82;100.00
15272;BME280;7737;51.578;7.268;2023-02-17T22:50:07;101715.63;;;10.83;100.00
15272;BME280;7737;51.578;7.268;2023-02-17T22:52:34;101707.63;;;10.85;100.00
15272;BME280;7737;51.578;7.268;2023-02-17T22:55:02;101717.31;;;10.86;100.00
15272;BME280;7737;51.578;7.268;2023-02-17T22:57:28;101703.28;;;10.82;100.00
15272;BME280;7737;51.578;7.268;2023-02-17T22:59:55;101704.84;;;10.88;100.00
15272;BME280;7737;51.578;7.268;2023-02-17T23:02:21;101702.19;;;10.88;100.00
15272;BME280;7737;51.578;7.268;2023-02-17T23:04:48;101698.59;;;10.89;100.00
15272;BME280;7737;51.578;7.268;2023-02-17T23:07:14;101706.69;;;10.86;100.00
15272;BME280;7737;51.578;7.268;2023-02-17T23:09:41;101705.66;;;10.90;100.00
15272;BME280;7737;51.578;7.268;2023-02-17T23:12:09;101710.91;;;10.91;100.00
15272;BME280;7737;51.578;7.268;2023-02-17T23:14:38;101700.25;;;10.93;100.00
15272;BME280;7737;51.578;7.268;2023-02-17T23:17:06;101698.50;;;10.92;100.00
15272;BME280;7737;51.578;7.268;2023-02-17T23:19:34;101698.59;;;10.89;100.00
15272;BME280;7737;51.578;7.268;2023-02-17T23:22:03;101689.81;;;10.87;100.00
15272;BME280;7737;51.578;7.268;2023-02-17T23:24:31;101693.28;;;10.89;100.00
15272;BME280;7737;51.578;7.268;2023-02-17T23:27:00;101697.63;;;10.91;100.00
15272;BME280;7737;51.578;7.268;2023-02-17T23:29:29;101692.28;;;10.91;100.00
15272;BME280;7737;51.578;7.268;2023-02-17T23:31:56;101692.38;;;10.90;100.00
15272;BME280;7737;51.578;7.268;2023-02-17T23:34:22;101677.22;;;10.92;100.00
15272;BME280;7737;51.578;7.268;2023-02-17T23:36:49;101679.97;;;10.89;100.00
15272;BME280;7737;51.578;7.268;2023-02-17T23:39:16;101681.63;;;10.93;100.00
15272;BME280;7737;51.578;7.268;2023-02-17T23:41:42;101669.50;;;10.84;100.00
15272;BME280;7737;51.578;7.268;2023-02-17T23:44:10;101675.69;;;10.85;100.00
15272;BME280;7737;51.578;7.268;2023-02-17T23:46:39;101674.75;;;10.86;100.00
15272;BME280;7737;51.578;7.268;2023-02-17T23:49:06;101670.28;;;10.88;100.00
15272;BME280;7737;51.578;7.268;2023-02-17T23:51:32;101670.53;;;10.80;100.00
15272;BME280;7737;51.578;7.268;2023-02-17T23:53:59;101667.63;;;10.88;100.00
15272;BME280;7737;51.578;7.268;2023-02-17T23:56:28;101672.19;;;10.83;100.00
15272;BME280;7737;51.578;7.268;2023-02-17T23:58:54;101674.72;;;10.87;100.00
